createdAt,value
2023-03-26T00:01:51.157Z,98655.91
2023-03-26T00:06:04.540Z,98662.00
2023-03-26T00:10:08.487Z,98656.50
2023-03-26T00:14:13.961Z,98644.88
2023-03-26T00:18:17.113Z,98643.97
2023-03-26T00:22:21.282Z,98637.13
2023-03-26T00:26:24.360Z,98636.75
2023-03-26T00:30:27.727Z,98628.22
2023-03-26T00:34:36.189Z,98637.59
2023-03-26T00:38:40.553Z,98630.72
2023-03-26T00:42:45.568Z,98625.47
2023-03-26T00:46:48.736Z,98613.56
2023-03-26T00:51:02.363Z,98606.69
2023-03-26T00:55:07.657Z,98603.03
2023-03-26T00:59:11.124Z,98600.75
2023-03-26T01:03:27.707Z,98586.09
2023-03-26T01:07:35.213Z,98576.13
2023-03-26T01:11:39.556Z,98567.31
2023-03-26T01:15:51.240Z,98572.50
2023-03-26T01:20:01.533Z,98555.75
2023-03-26T01:24:06.939Z,98542.66
2023-03-26T01:28:12.590Z,98549.47
2023-03-26T01:32:24.816Z,98529.31
2023-03-26T01:36:34.719Z,98525.75
2023-03-26T01:40:47.317Z,98517.09
2023-03-26T01:44:54.275Z,98520.31
2023-03-26T01:48:57.025Z,98508.34
2023-03-26T01:53:00.020Z,98504.25
2023-03-26T01:57:11.536Z,98503.44
2023-03-26T02:01:20.517Z,98494.34
2023-03-26T02:05:28.252Z,98482.94
2023-03-26T02:09:34.328Z,98475.41
2023-03-26T02:13:39.001Z,98464.81
2023-03-26T02:17:41.921Z,98463.69
2023-03-26T02:21:51.267Z,98459.13
2023-03-26T02:25:54.778Z,98443.38
2023-03-26T02:29:59.118Z,98435.31
2023-03-26T02:34:05.943Z,98434.03
2023-03-26T02:38:10.105Z,98414.06
2023-03-26T02:42:16.475Z,98416.50
2023-03-26T02:46:21.468Z,98400.72
2023-03-26T02:50:24.281Z,98398.28
2023-03-26T02:54:32.342Z,98383.47
2023-03-26T02:58:35.362Z,98383.31
2023-03-26T03:02:40.295Z,98366.22
2023-03-26T03:06:46.730Z,98368.41
2023-03-26T03:10:57.872Z,98372.91
2023-03-26T03:15:01.866Z,98360.41
2023-03-26T03:19:06.248Z,98357.41
2023-03-26T03:23:09.204Z,98343.75
2023-03-26T03:27:12.642Z,98345.66
2023-03-26T03:31:15.495Z,98333.06
2023-03-26T03:35:20.285Z,98315.56
2023-03-26T03:39:23.089Z,98314.56
2023-03-26T03:43:27.516Z,98295.81
2023-03-26T03:47:31.070Z,98295.44
2023-03-26T03:51:35.327Z,98277.88
2023-03-26T03:55:42.175Z,98271.38
2023-03-26T03:59:48.013Z,98271.69
2023-03-26T04:03:51.204Z,98262.94
2023-03-26T04:07:55.610Z,98250.25
2023-03-26T04:11:58.457Z,98195.31
2023-03-26T04:16:01.288Z,98244.63
2023-03-26T04:20:07.318Z,98247.00
2023-03-26T04:24:12.488Z,98246.50
2023-03-26T04:28:26.423Z,98242.00
2023-03-26T04:32:45.013Z,98230.88
2023-03-26T04:36:48.018Z,98220.16
2023-03-26T04:41:00.847Z,98198.69
2023-03-26T04:45:08.902Z,98178.56
2023-03-26T04:49:11.807Z,98179.75
2023-03-26T04:53:17.092Z,98163.13
2023-03-26T04:57:23.733Z,98156.63
2023-03-26T05:01:28.343Z,98150.66
2023-03-26T05:05:31.824Z,98133.41
2023-03-26T05:09:34.561Z,98128.66
2023-03-26T05:13:38.901Z,98111.50
2023-03-26T05:17:42.649Z,98101.56
2023-03-26T05:21:46.044Z,98096.38
2023-03-26T05:25:48.795Z,98105.22
2023-03-26T05:29:53.231Z,98101.88
2023-03-26T05:33:56.013Z,98094.91
2023-03-26T05:37:59.094Z,98095.16
2023-03-26T05:42:01.768Z,98091.28
2023-03-26T05:46:06.698Z,98077.63
2023-03-26T05:50:10.568Z,98071.69
2023-03-26T05:54:13.361Z,98065.88
2023-03-26T05:58:16.123Z,98044.00
2023-03-26T06:02:20.366Z,98019.72
2023-03-26T06:06:24.047Z,98006.75
2023-03-26T06:10:27.228Z,97996.59
2023-03-26T06:14:29.907Z,97990.13
2023-03-26T06:18:58.385Z,97902.44
2023-03-26T06:23:01.470Z,97962.66
2023-03-26T06:27:04.382Z,97962.41
2023-03-26T06:31:07.222Z,97944.91
2023-03-26T06:35:11.918Z,97946.28
2023-03-26T06:39:14.683Z,97941.38
2023-03-26T06:43:18.095Z,97931.16
2023-03-26T06:47:21.129Z,97930.91
2023-03-26T06:51:25.409Z,97913.00
2023-03-26T06:55:28.338Z,97927.03
2023-03-26T06:59:31.784Z,97905.72
2023-03-26T07:03:34.809Z,97924.22
2023-03-26T07:07:40.511Z,97905.91
2023-03-26T07:11:49.885Z,97912.94
2023-03-26T07:15:52.814Z,97912.25
2023-03-26T07:19:55.694Z,97893.88
2023-03-26T07:24:00.601Z,97899.69
2023-03-26T07:28:08.745Z,97896.03
2023-03-26T07:32:19.237Z,97898.66
2023-03-26T07:36:26.696Z,97891.34
2023-03-26T07:40:41.873Z,97878.31
2023-03-26T07:44:52.855Z,97872.53
2023-03-26T07:48:58.284Z,97887.28
2023-03-26T07:53:01.492Z,97885.44
2023-03-26T07:57:08.040Z,97861.31
2023-03-26T08:01:16.755Z,97865.28
2023-03-26T08:05:23.231Z,97866.34
2023-03-26T08:09:32.064Z,97866.13
2023-03-26T08:13:41.632Z,97857.19
2023-03-26T08:17:47.624Z,97863.22
2023-03-26T08:21:53.507Z,97853.88
2023-03-26T08:26:02.570Z,97857.25
2023-03-26T08:30:10.946Z,97850.91
2023-03-26T08:34:14.493Z,97846.50
2023-03-26T08:38:19.507Z,97847.56
2023-03-26T08:42:55.722Z,97854.75
2023-03-26T08:47:31.091Z,97849.00
2023-03-26T08:51:52.205Z,97848.53
2023-03-26T08:55:57.504Z,97825.88
2023-03-26T09:00:13.615Z,97844.09
2023-03-26T09:04:21.301Z,97839.97
2023-03-26T09:08:59.141Z,97843.66
2023-03-26T09:13:19.991Z,97845.41
2023-03-26T09:17:51.563Z,97831.16
2023-03-26T09:22:20.864Z,97851.41
2023-03-26T09:26:31.539Z,97845.78
2023-03-26T09:31:11.037Z,97854.94
2023-03-26T09:35:24.175Z,97834.25
2023-03-26T09:39:38.738Z,97846.44
2023-03-26T09:44:08.432Z,97866.47
2023-03-26T09:48:25.538Z,97880.00
2023-03-26T09:52:45.621Z,97872.88
2023-03-26T09:56:54.912Z,97874.25
2023-03-26T10:01:05.784Z,97874.44
2023-03-26T10:05:39.184Z,97891.53
2023-03-26T10:09:51.110Z,97887.81
2023-03-26T10:14:01.351Z,97891.72
2023-03-26T10:18:26.627Z,97882.25
2023-03-26T10:22:43.648Z,97895.41
2023-03-26T10:27:09.191Z,97895.81
2023-03-26T10:31:31.962Z,97885.41
2023-03-26T10:35:46.195Z,97894.81
2023-03-26T10:40:18.474Z,97899.25
2023-03-26T10:44:35.048Z,97893.38
2023-03-26T10:48:48.396Z,97897.09
2023-03-26T10:52:54.571Z,97892.25
2023-03-26T10:56:57.932Z,97889.84
2023-03-26T11:01:05.516Z,97913.66
2023-03-26T11:05:25.336Z,97899.41
2023-03-26T11:09:37.239Z,97898.13
2023-03-26T11:13:48.639Z,97896.06
2023-03-26T11:18:00.740Z,97902.22
2023-03-26T11:22:10.846Z,97907.16
2023-03-26T11:26:16.737Z,97903.84
2023-03-26T11:30:24.700Z,97903.66
2023-03-26T11:34:32.497Z,97895.88
2023-03-26T11:38:38.540Z,97901.78
2023-03-26T11:42:43.364Z,97882.78
2023-03-26T11:46:47.620Z,97882.09
2023-03-26T11:50:52.665Z,97872.13
2023-03-26T11:54:58.733Z,97831.44
2023-03-26T11:59:06.317Z,97860.47
2023-03-26T12:03:16.780Z,97864.50
2023-03-26T12:07:21.780Z,97849.59
2023-03-26T12:11:28.200Z,97856.00
2023-03-26T12:15:33.261Z,97853.09
2023-03-26T12:19:41.194Z,97851.38
2023-03-26T12:23:51.854Z,97851.69
2023-03-26T12:28:02.501Z,97835.22
2023-03-26T12:32:08.466Z,97845.94
2023-03-26T12:36:21.388Z,97841.13
2023-03-26T12:40:30.336Z,97835.41
2023-03-26T12:44:54.713Z,97826.03
2023-03-26T12:49:02.979Z,97818.44
2023-03-26T12:53:19.272Z,97831.09
2023-03-26T12:57:24.563Z,97836.41
2023-03-26T13:01:36.359Z,97820.84
2023-03-26T13:05:58.392Z,97828.09
2023-03-26T13:10:31.150Z,97841.69
2023-03-26T13:14:57.281Z,97836.13
2023-03-26T13:19:04.172Z,97838.09
2023-03-26T13:23:13.719Z,97831.53
2023-03-26T13:27:29.726Z,97834.03
2023-03-26T13:31:33.253Z,97829.84
2023-03-26T13:35:39.156Z,97825.34
2023-03-26T13:39:51.341Z,97819.69
2023-03-26T13:44:01.838Z,97834.97
2023-03-26T13:48:06.082Z,97824.47
2023-03-26T13:52:12.967Z,97806.69
2023-03-26T13:56:20.623Z,97825.31
2023-03-26T14:00:26.917Z,97827.56
2023-03-26T14:04:33.217Z,97841.00
2023-03-26T14:08:39.325Z,97842.31
2023-03-26T14:12:51.406Z,97836.59
2023-03-26T14:16:58.246Z,97842.56
2023-03-26T14:21:48.817Z,97833.16
2023-03-26T14:26:04.292Z,97841.69
2023-03-26T14:30:30.042Z,97809.91
2023-03-26T14:34:47.107Z,97845.22
2023-03-26T14:39:05.922Z,97835.97
2023-03-26T14:43:29.968Z,97853.03
2023-03-26T14:47:39.605Z,97847.72
2023-03-26T14:51:51.750Z,97850.75
2023-03-26T14:56:50.049Z,97855.78
2023-03-26T15:01:23.727Z,97905.06
2023-03-26T15:05:47.048Z,97976.97
2023-03-26T15:10:11.424Z,97943.53
2023-03-26T15:14:46.977Z,97929.06
2023-03-26T15:19:14.997Z,97916.66
2023-03-26T15:23:49.085Z,97888.78
2023-03-26T15:27:59.165Z,97907.91
2023-03-26T15:32:35.181Z,97916.34
2023-03-26T15:37:01.937Z,97923.28
2023-03-26T15:41:24.526Z,97927.25
2023-03-26T15:45:33.730Z,97925.41
2023-03-26T15:49:42.278Z,97920.16
2023-03-26T15:53:49.016Z,97921.22
2023-03-26T15:57:57.960Z,97908.31
2023-03-26T16:02:10.129Z,97922.50
2023-03-26T16:06:36.507Z,97925.66
2023-03-26T16:10:44.596Z,97930.94
2023-03-26T16:14:49.992Z,97944.56
2023-03-26T16:18:58.371Z,97938.03
2023-03-26T16:23:03.593Z,97935.38
2023-03-26T16:27:23.436Z,97934.34
2023-03-26T16:31:36.731Z,97929.09
2023-03-26T16:35:57.705Z,97940.13
2023-03-26T16:40:28.579Z,97929.34
2023-03-26T16:44:39.169Z,97921.19
2023-03-26T16:48:55.041Z,97922.00
2023-03-26T16:53:02.263Z,97901.16
2023-03-26T16:57:14.818Z,97915.13
2023-03-26T17:01:22.483Z,97915.09
2023-03-26T17:05:36.627Z,97912.47
2023-03-26T17:09:51.695Z,97921.97
2023-03-26T17:14:04.290Z,97923.28
2023-03-26T17:18:28.038Z,97921.72
2023-03-26T17:22:38.802Z,97928.25
2023-03-26T17:26:48.046Z,97935.88
2023-03-26T17:31:02.071Z,97936.69
2023-03-26T17:35:07.541Z,97933.50
2023-03-26T17:39:23.663Z,97937.19
2023-03-26T17:43:38.606Z,97945.63
2023-03-26T17:47:45.714Z,97950.56
2023-03-26T17:51:50.616Z,97947.41
2023-03-26T17:55:55.717Z,97948.97
2023-03-26T18:00:00.508Z,97960.31
2023-03-26T18:04:04.959Z,97959.66
2023-03-26T18:08:37.540Z,97971.22
2023-03-26T18:13:03.099Z,97948.63
2023-03-26T18:17:06.528Z,97975.38
2023-03-26T18:21:09.904Z,97978.28
2023-03-26T18:25:22.331Z,97986.41
2023-03-26T18:29:28.503Z,97972.25
2023-03-26T18:33:43.016Z,97987.56
2023-03-26T18:37:46.148Z,97989.31
2023-03-26T18:41:48.854Z,97984.59
2023-03-26T18:45:54.006Z,97994.06
2023-03-26T18:49:57.615Z,98004.56
2023-03-26T18:54:03.955Z,98008.00
2023-03-26T18:58:22.373Z,98010.84
2023-03-26T19:02:27.100Z,97976.81
2023-03-26T19:06:30.458Z,98017.28
2023-03-26T19:10:34.124Z,98029.69
2023-03-26T19:14:53.229Z,98034.63
2023-03-26T19:18:59.778Z,98033.78
2023-03-26T19:23:02.718Z,98030.31
2023-03-26T19:27:06.124Z,98044.06
2023-03-26T19:31:12.462Z,98054.06
2023-03-26T19:35:24.465Z,98047.41
2023-03-26T19:39:37.778Z,98059.50
2023-03-26T19:43:41.007Z,98060.88
2023-03-26T19:51:18.645Z,98068.53
2023-03-26T19:52:15.989Z,98072.41
2023-03-26T19:56:20.813Z,98078.41
2023-03-26T20:00:23.848Z,98086.56
2023-03-26T20:04:27.347Z,98084.97
2023-03-26T20:08:32.186Z,98088.41
2023-03-26T20:12:35.232Z,98096.81
2023-03-26T20:16:38.399Z,98102.53
2023-03-26T20:20:41.989Z,98112.03
2023-03-26T20:24:46.206Z,98127.78
2023-03-26T20:33:12.688Z,98130.22
2023-03-26T20:37:16.735Z,98140.84
2023-03-26T20:41:23.043Z,98140.84
2023-03-26T20:45:26.301Z,98158.88
2023-03-26T20:49:29.943Z,98167.84
2023-03-26T20:53:32.701Z,98170.06
2023-03-26T20:57:37.207Z,98179.16
2023-03-26T21:01:39.950Z,98190.59
2023-03-26T21:05:43.874Z,98197.56
2023-03-26T21:09:48.967Z,98216.59
2023-03-26T21:13:59.358Z,98218.19
2023-03-26T21:18:02.511Z,98218.38
2023-03-26T21:22:13.760Z,98215.28
2023-03-26T21:26:22.635Z,98226.94
2023-03-26T21:30:27.525Z,98229.81
2023-03-26T21:34:32.929Z,98240.63
2023-03-26T21:38:37.369Z,98246.78
2023-03-26T21:42:40.634Z,98254.97
2023-03-26T21:46:46.726Z,98261.31
2023-03-26T21:50:49.779Z,98274.22
2023-03-26T21:54:53.423Z,98288.53
2023-03-26T21:59:00.247Z,98280.69
2023-03-26T22:03:10.353Z,98291.34
2023-03-26T22:07:15.750Z,98303.88
2023-03-26T22:11:18.492Z,98327.44
2023-03-26T22:15:21.943Z,98317.91
2023-03-26T22:19:26.950Z,98321.72
2023-03-26T22:23:36.330Z,98344.03
2023-03-26T22:27:44.036Z,98340.09
2023-03-26T22:31:48.356Z,98359.13
2023-03-26T22:35:52.572Z,98360.19
2023-03-26T22:39:55.408Z,98386.69
2023-03-26T22:44:09.238Z,98391.50
2023-03-26T22:48:22.372Z,98390.34
2023-03-26T22:52:27.214Z,98411.91
2023-03-26T22:56:30.015Z,98410.97
2023-03-26T23:00:32.841Z,98422.31
2023-03-26T23:04:37.701Z,98440.59
2023-03-26T23:08:42.236Z,98457.06
2023-03-26T23:12:44.997Z,98465.44
2023-03-26T23:16:47.934Z,98476.94
2023-03-26T23:20:52.802Z,98484.63
2023-03-26T23:24:57.318Z,98501.06
2023-03-26T23:29:00.224Z,98496.41
2023-03-26T23:33:03.773Z,98505.44
2023-03-26T23:37:06.617Z,98528.25
2023-03-26T23:41:10.746Z,98536.25
2023-03-26T23:45:13.496Z,98548.66
2023-03-26T23:49:16.322Z,98551.41
2023-03-26T23:53:19.722Z,98564.84
2023-03-26T23:57:23.827Z,98575.47
